createdAt,value
2022-11-02T00:01:09.464Z,95778.19
2022-11-02T00:03:37.317Z,95770.06
2022-11-02T00:06:05.345Z,95773.97
2022-11-02T00:08:33.143Z,95777.44
2022-11-02T00:11:00.913Z,95768.59
2022-11-02T00:13:30.044Z,95773.84
2022-11-02T00:15:58.130Z,95766.69
2022-11-02T00:18:25.957Z,95773.50
2022-11-02T00:20:53.813Z,95776.16
2022-11-02T00:23:21.599Z,95778.97
2022-11-02T00:25:51.460Z,95773.63
2022-11-02T00:28:19.586Z,95775.16
2022-11-02T00:30:48.764Z,95771.53
2022-11-02T00:33:16.547Z,95772.41
2022-11-02T00:35:45.820Z,95777.13
2022-11-02T00:38:13.848Z,95780.41
2022-11-02T00:40:41.603Z,95776.44
2022-11-02T00:43:09.357Z,95782.88
2022-11-02T00:45:37.171Z,95787.69
2022-11-02T00:48:07.223Z,95783.72
2022-11-02T00:50:35.222Z,95788.69
2022-11-02T00:53:04.233Z,95792.91
2022-11-02T00:55:32.227Z,95774.75
2022-11-02T00:58:04.294Z,95792.09
2022-11-02T01:00:32.321Z,95783.41
2022-11-02T01:03:01.351Z,95791.97
2022-11-02T01:05:31.044Z,95792.56
2022-11-02T01:07:58.790Z,95793.69
2022-11-02T01:10:27.536Z,95791.13
2022-11-02T01:12:55.294Z,95802.56
2022-11-02T01:15:23.135Z,95794.75
2022-11-02T01:17:50.936Z,95792.53
2022-11-02T01:20:18.906Z,95789.84
2022-11-02T01:22:48.405Z,95805.38
2022-11-02T01:25:16.222Z,95799.84
2022-11-02T01:27:43.926Z,95803.78
2022-11-02T01:30:13.673Z,95812.28
2022-11-02T01:32:41.508Z,95810.88
2022-11-02T01:35:10.322Z,95803.13
2022-11-02T01:37:39.653Z,95814.06
2022-11-02T01:40:12.200Z,95808.25
2022-11-02T01:42:39.969Z,95812.50
2022-11-02T01:45:08.615Z,95809.84
2022-11-02T01:47:39.626Z,95812.94
2022-11-02T01:50:12.547Z,95811.28
2022-11-02T01:52:41.376Z,95817.84
2022-11-02T01:55:16.439Z,95811.19
2022-11-02T01:57:47.719Z,95807.03
2022-11-02T02:00:17.749Z,95813.88
2022-11-02T02:02:51.558Z,95810.03
2022-11-02T02:05:23.101Z,95806.09
2022-11-02T02:07:53.123Z,95803.22
2022-11-02T02:10:22.278Z,95806.09
2022-11-02T02:12:50.861Z,95800.50
2022-11-02T02:15:22.952Z,95812.78
2022-11-02T02:17:58.778Z,95817.63
2022-11-02T02:20:43.108Z,95813.13
2022-11-02T02:23:44.010Z,95821.31
2022-11-02T02:26:43.082Z,95820.53
2022-11-02T02:29:20.577Z,95824.59
2022-11-02T02:31:54.114Z,95822.72
2022-11-02T02:34:27.277Z,95828.44
2022-11-02T02:37:01.668Z,95822.94
2022-11-02T02:39:42.166Z,95832.22
2022-11-02T02:42:19.544Z,95830.63
2022-11-02T02:44:59.583Z,95837.25
2022-11-02T02:47:32.103Z,95831.00
2022-11-02T02:50:06.811Z,95832.53
2022-11-02T02:52:38.621Z,95835.47
2022-11-02T02:55:08.057Z,95829.47
2022-11-02T02:57:37.357Z,95838.03
2022-11-02T03:00:14.330Z,95834.41
2022-11-02T03:02:44.724Z,95834.41
2022-11-02T03:05:26.094Z,95827.97
2022-11-02T03:07:55.601Z,95828.81
2022-11-02T03:10:32.215Z,95840.34
2022-11-02T03:13:11.183Z,95833.03
2022-11-02T03:15:43.606Z,95848.53
2022-11-02T03:18:19.325Z,95840.75
2022-11-02T03:20:58.405Z,95855.66
2022-11-02T03:23:33.997Z,95841.19
2022-11-02T03:26:08.180Z,95846.97
2022-11-02T03:28:52.322Z,95845.66
2022-11-02T03:31:29.432Z,95844.94
2022-11-02T03:34:03.519Z,95854.66
2022-11-02T03:36:36.219Z,95850.19
2022-11-02T03:39:09.132Z,95852.53
2022-11-02T03:41:42.013Z,95857.72
2022-11-02T03:44:16.085Z,95859.25
2022-11-02T03:46:46.173Z,95855.03
2022-11-02T03:49:20.466Z,95858.19
2022-11-02T03:51:51.400Z,95865.16
2022-11-02T03:54:28.292Z,95854.22
2022-11-02T03:57:00.654Z,95870.66
2022-11-02T03:59:31.689Z,95863.19
2022-11-02T04:02:02.971Z,95864.75
2022-11-02T04:04:31.999Z,95858.94
2022-11-02T04:06:59.797Z,95870.41
2022-11-02T04:09:27.668Z,95862.56
2022-11-02T04:12:13.686Z,95862.91
2022-11-02T04:14:41.607Z,95861.31
2022-11-02T04:17:34.873Z,95862.88
2022-11-02T04:20:07.316Z,95861.47
2022-11-02T04:22:53.154Z,95869.28
2022-11-02T04:25:21.603Z,95866.53
2022-11-02T04:28:15.463Z,95863.50
2022-11-02T04:30:50.210Z,95862.38
2022-11-02T04:33:36.140Z,95860.50
2022-11-02T04:36:08.987Z,95857.56
2022-11-02T04:38:40.398Z,95855.25
2022-11-02T04:41:31.032Z,95853.22
2022-11-02T04:43:59.863Z,95843.97
2022-11-02T04:46:29.919Z,95846.53
2022-11-02T04:48:59.851Z,95842.00
2022-11-02T04:51:30.397Z,95844.72
2022-11-02T04:53:59.792Z,95842.56
2022-11-02T04:56:29.410Z,95845.50
2022-11-02T04:58:59.585Z,95847.66
2022-11-02T05:01:30.546Z,95853.88
2022-11-02T05:04:02.243Z,95849.41
2022-11-02T05:06:32.644Z,95860.41
2022-11-02T05:09:00.962Z,95854.09
2022-11-02T05:11:29.658Z,95846.72
2022-11-02T05:13:58.354Z,95846.91
2022-11-02T05:16:26.239Z,95851.19
2022-11-02T05:18:55.458Z,95856.44
2022-11-02T05:21:26.100Z,95852.53
2022-11-02T05:23:55.927Z,95855.69
2022-11-02T05:26:24.502Z,95854.19
2022-11-02T05:28:52.661Z,95854.72
2022-11-02T05:31:21.495Z,95861.38
2022-11-02T05:33:50.747Z,95863.28
2022-11-02T05:36:21.824Z,95851.78
2022-11-02T05:38:55.374Z,95846.59
2022-11-02T05:41:24.987Z,95841.41
2022-11-02T05:43:56.230Z,95855.09
2022-11-02T05:46:25.958Z,95849.63
2022-11-02T05:48:53.749Z,95847.44
2022-11-02T05:51:21.556Z,95862.16
2022-11-02T05:53:49.372Z,95859.97
2022-11-02T05:56:24.654Z,95862.31
2022-11-02T05:58:54.559Z,95865.38
2022-11-02T06:01:22.562Z,95876.53
2022-11-02T06:03:53.403Z,95877.44
2022-11-02T06:06:21.898Z,95884.06
2022-11-02T06:08:49.851Z,95890.59
2022-11-02T06:11:19.033Z,95893.78
2022-11-02T06:13:50.379Z,95905.66
2022-11-02T06:16:43.979Z,95897.53
2022-11-02T06:19:22.027Z,95899.50
2022-11-02T06:21:49.919Z,95900.34
2022-11-02T06:24:17.723Z,95903.22
2022-11-02T06:26:47.006Z,95901.13
2022-11-02T06:29:15.005Z,95902.47
2022-11-02T06:31:42.826Z,95905.69
2022-11-02T06:34:10.580Z,95900.97
2022-11-02T06:36:38.317Z,95922.31
2022-11-02T06:39:06.170Z,95913.03
2022-11-02T06:41:33.944Z,95911.69
2022-11-02T06:44:03.095Z,95917.81
2022-11-02T06:46:30.870Z,95925.91
2022-11-02T06:48:58.922Z,95921.41
2022-11-02T06:51:26.697Z,95924.44
2022-11-02T06:53:54.456Z,95933.50
2022-11-02T06:56:22.275Z,95932.94
2022-11-02T06:58:51.021Z,95928.97
2022-11-02T07:01:20.297Z,95925.59
2022-11-02T07:03:48.164Z,95933.25
2022-11-02T07:06:15.922Z,95938.09
2022-11-02T07:08:43.801Z,95942.47
2022-11-02T07:11:15.412Z,95944.22
2022-11-02T07:13:43.374Z,95936.63
2022-11-02T07:16:11.293Z,95932.31
2022-11-02T07:18:42.358Z,95923.81
2022-11-02T07:21:11.454Z,95954.63
2022-11-02T07:23:39.383Z,95953.47
2022-11-02T07:26:07.124Z,95949.13
2022-11-02T07:28:36.808Z,95944.03
2022-11-02T07:31:04.647Z,95947.16
2022-11-02T07:33:32.475Z,95951.88
2022-11-02T07:36:03.995Z,95963.81
2022-11-02T07:38:31.825Z,95960.25
2022-11-02T07:40:59.595Z,95956.19
2022-11-02T07:43:27.542Z,95958.44
2022-11-02T07:46:02.889Z,95961.88
2022-11-02T07:48:31.878Z,95960.72
2022-11-02T07:51:01.016Z,95966.13
2022-11-02T07:53:28.777Z,95962.66
2022-11-02T07:55:56.602Z,95957.31
2022-11-02T07:58:24.404Z,95964.53
2022-11-02T08:00:55.835Z,95964.38
2022-11-02T08:03:27.357Z,95977.28
2022-11-02T08:05:55.773Z,95968.34
2022-11-02T08:08:25.668Z,95973.31
2022-11-02T08:10:54.680Z,95975.69
2022-11-02T08:13:23.833Z,95966.56
2022-11-02T08:15:52.426Z,95968.34
2022-11-02T08:18:21.867Z,95973.69
2022-11-02T08:20:50.029Z,95975.25
2022-11-02T08:23:20.782Z,95983.03
2022-11-02T08:25:51.767Z,95985.59
2022-11-02T08:28:21.499Z,95991.22
2022-11-02T08:30:49.306Z,95988.69
2022-11-02T08:33:18.872Z,95993.69
2022-11-02T08:35:48.013Z,95992.81
2022-11-02T08:38:15.984Z,95992.13
2022-11-02T08:40:44.818Z,95985.19
2022-11-02T08:43:15.577Z,95991.63
2022-11-02T08:48:33.677Z,95989.44
2022-11-02T08:51:01.466Z,95992.97
2022-11-02T08:53:30.517Z,95992.06
2022-11-02T08:55:59.450Z,95997.81
2022-11-02T08:58:28.581Z,96000.84
2022-11-02T09:00:57.567Z,95998.06
2022-11-02T09:03:27.209Z,96001.81
2022-11-02T09:05:59.491Z,95997.84
2022-11-02T09:08:28.513Z,96005.97
2022-11-02T09:11:00.326Z,96012.34
2022-11-02T09:13:29.958Z,96004.38
2022-11-02T09:15:59.257Z,96008.34
2022-11-02T09:18:27.318Z,96007.97
2022-11-02T09:20:55.202Z,96002.59
2022-11-02T09:23:23.607Z,96016.50
2022-11-02T09:25:51.403Z,96024.88
2022-11-02T09:28:19.178Z,96019.88
2022-11-02T09:30:48.425Z,96022.63
2022-11-02T09:33:16.309Z,96017.91
2022-11-02T09:35:45.979Z,96008.34
2022-11-02T09:38:14.086Z,96022.06
2022-11-02T09:40:44.499Z,96022.03
2022-11-02T09:43:21.359Z,96024.63
2022-11-02T09:45:58.336Z,96019.28
2022-11-02T09:48:31.824Z,96015.13
2022-11-02T09:51:06.197Z,96032.59
2022-11-02T09:53:59.930Z,96032.78
2022-11-02T09:56:28.446Z,96034.38
2022-11-02T09:59:00.596Z,96043.94
2022-11-02T10:01:38.904Z,96033.41
2022-11-02T10:04:21.982Z,96038.94
2022-11-02T10:06:57.543Z,96045.53
2022-11-02T10:09:36.258Z,96045.13
2022-11-02T10:12:13.500Z,96039.34
2022-11-02T10:14:47.538Z,96041.94
2022-11-02T10:17:21.532Z,96031.81
2022-11-02T10:19:56.060Z,96048.69
2022-11-02T10:22:27.030Z,96047.72
2022-11-02T10:24:57.615Z,96032.19
2022-11-02T10:27:27.796Z,96037.75
2022-11-02T10:30:00.825Z,96047.50
2022-11-02T10:32:32.457Z,96031.00
2022-11-02T10:35:17.914Z,96038.94
2022-11-02T10:38:04.356Z,96045.72
2022-11-02T10:40:52.807Z,96050.69
2022-11-02T10:43:33.101Z,96054.06
2022-11-02T10:46:13.462Z,96042.72
2022-11-02T10:48:53.319Z,96043.06
2022-11-02T10:51:21.994Z,96045.88
2022-11-02T10:53:51.879Z,96047.28
2022-11-02T10:56:22.099Z,96049.47
2022-11-02T10:59:00.167Z,96040.16
2022-11-02T11:01:29.228Z,96035.16
2022-11-02T11:04:01.125Z,96035.16
2022-11-02T11:06:31.891Z,96037.34
2022-11-02T11:09:01.657Z,96041.91
2022-11-02T11:11:31.818Z,96035.38
2022-11-02T11:16:55.425Z,96036.53
2022-11-02T11:22:26.025Z,96030.59
2022-11-02T11:24:54.198Z,96033.00
2022-11-02T11:27:22.940Z,96024.84
2022-11-02T11:29:55.693Z,96028.00
2022-11-02T11:32:30.155Z,96027.03
2022-11-02T11:35:03.722Z,96026.63
2022-11-02T11:37:31.886Z,96037.19
2022-11-02T11:40:03.990Z,96038.34
2022-11-02T11:42:36.540Z,96039.38
2022-11-02T11:45:06.942Z,96042.94
2022-11-02T11:47:38.435Z,96038.75
2022-11-02T11:50:18.992Z,96038.56
2022-11-02T11:53:11.037Z,96025.66
2022-11-02T11:55:49.028Z,96020.28
2022-11-02T11:58:21.092Z,96031.59
2022-11-02T12:01:10.244Z,96040.34
2022-11-02T12:03:52.329Z,96027.97
2022-11-02T12:06:28.671Z,96025.00
2022-11-02T12:09:04.888Z,96023.84
2022-11-02T12:11:46.833Z,96034.19
2022-11-02T12:14:27.413Z,96044.66
2022-11-02T12:17:14.961Z,96025.59
2022-11-02T12:19:59.314Z,96018.22
2022-11-02T12:22:39.279Z,96020.00
2022-11-02T12:25:26.595Z,96024.63
2022-11-02T12:28:00.613Z,96015.28
2022-11-02T12:30:37.009Z,96009.75
2022-11-02T12:33:23.467Z,96013.50
2022-11-02T12:36:21.921Z,96006.94
2022-11-02T12:39:02.120Z,96005.97
2022-11-02T12:41:45.414Z,96007.53
2022-11-02T12:44:30.335Z,96010.13
2022-11-02T12:47:06.999Z,96005.00
2022-11-02T12:49:42.615Z,95993.28
2022-11-02T12:52:24.412Z,95985.50
2022-11-02T12:55:04.696Z,95989.31
2022-11-02T12:57:37.174Z,95982.34
2022-11-02T13:00:09.032Z,95978.38
2022-11-02T13:02:50.946Z,95978.38
2022-11-02T13:05:22.323Z,95979.38
2022-11-02T13:07:59.639Z,95975.19
2022-11-02T13:10:34.112Z,95974.72
2022-11-02T13:13:05.314Z,95975.19
2022-11-02T13:15:36.648Z,95978.78
2022-11-02T13:18:11.468Z,95975.41
2022-11-02T13:20:45.537Z,95975.19
2022-11-02T13:23:23.233Z,95971.63
2022-11-02T13:25:58.659Z,95966.84
2022-11-02T13:28:34.899Z,95981.72
2022-11-02T13:31:11.731Z,95970.59
2022-11-02T13:33:47.687Z,95963.06
2022-11-02T13:36:16.196Z,95972.00
2022-11-02T13:38:48.275Z,95962.09
2022-11-02T13:41:42.843Z,95968.44
2022-11-02T13:44:45.626Z,95977.94
2022-11-02T13:47:30.235Z,95972.19
2022-11-02T13:49:59.951Z,95961.09
2022-11-02T13:52:38.174Z,95957.53
2022-11-02T13:55:09.238Z,95953.53
2022-11-02T13:57:42.616Z,95966.25
2022-11-02T14:00:30.744Z,95951.16
2022-11-02T14:03:08.179Z,95959.50
2022-11-02T14:05:44.453Z,95954.34
2022-11-02T14:08:20.809Z,95959.50
2022-11-02T14:11:03.881Z,95957.31
2022-11-02T14:14:17.202Z,95956.72
2022-11-02T14:16:47.051Z,95958.50
2022-11-02T14:19:22.980Z,95960.91
2022-11-02T14:22:11.144Z,95959.09
2022-11-02T14:25:14.346Z,95957.91
2022-11-02T14:27:42.189Z,95951.97
2022-11-02T14:30:45.173Z,95957.72
2022-11-02T14:33:54.482Z,95956.31
2022-11-02T14:36:39.185Z,95961.28
2022-11-02T14:39:18.576Z,95953.34
2022-11-02T14:42:21.640Z,95953.31
2022-11-02T14:45:07.494Z,95948.56
2022-11-02T14:47:39.634Z,95945.53
2022-11-02T14:50:14.207Z,95951.91
2022-11-02T14:52:53.640Z,95950.88
2022-11-02T14:55:26.065Z,95934.03
2022-11-02T14:57:58.544Z,95937.03
2022-11-02T15:00:33.801Z,95937.22
2022-11-02T15:03:05.817Z,95944.13
2022-11-02T15:05:37.490Z,95937.31
2022-11-02T15:08:08.463Z,95934.69
2022-11-02T15:10:45.382Z,95935.75
2022-11-02T15:13:49.005Z,95929.78
2022-11-02T15:16:22.747Z,95936.28
2022-11-02T15:18:52.242Z,95920.22
2022-11-02T15:21:27.527Z,95910.84
2022-11-02T15:24:01.448Z,95915.16
2022-11-02T15:26:41.643Z,95912.69
2022-11-02T15:29:19.542Z,95907.44
2022-11-02T15:31:53.955Z,95914.69
2022-11-02T15:34:31.367Z,95905.84
2022-11-02T15:37:01.347Z,95910.03
2022-11-02T15:39:29.501Z,95917.34
2022-11-02T15:42:03.572Z,95910.91
2022-11-02T15:44:57.978Z,95917.13
2022-11-02T15:47:36.542Z,95918.19
2022-11-02T15:50:17.700Z,95911.94
2022-11-02T15:53:22.252Z,95904.59
2022-11-02T15:56:01.326Z,95896.44
2022-11-02T15:58:40.470Z,95906.38
2022-11-02T16:01:18.618Z,95902.78
2022-11-02T16:03:48.788Z,95911.84
2022-11-02T16:06:26.325Z,95907.44
2022-11-02T16:08:54.646Z,95909.09
2022-11-02T16:11:22.739Z,95915.19
2022-11-02T16:14:08.618Z,95910.97
2022-11-02T16:16:48.108Z,95898.06
2022-11-02T16:19:20.967Z,95897.47
2022-11-02T16:21:51.105Z,95894.66
2022-11-02T16:24:20.311Z,95906.69
2022-11-02T16:26:49.550Z,95903.97
2022-11-02T16:29:32.251Z,95904.06
2022-11-02T16:32:00.025Z,95902.81
2022-11-02T16:34:30.928Z,95898.31
2022-11-02T16:37:10.075Z,95906.97
2022-11-02T16:39:42.151Z,95902.56
2022-11-02T16:42:17.477Z,95897.88
2022-11-02T16:44:55.933Z,95899.19
2022-11-02T16:47:35.552Z,95899.88
2022-11-02T16:50:05.730Z,95907.19
2022-11-02T16:52:37.612Z,95909.16
2022-11-02T16:55:35.700Z,95903.00
2022-11-02T16:58:04.502Z,95903.25
2022-11-02T17:00:32.770Z,95907.50
2022-11-02T17:03:08.612Z,95909.34
2022-11-02T17:05:40.948Z,95908.41
2022-11-02T17:08:23.495Z,95889.06
2022-11-02T17:10:56.634Z,95899.91
2022-11-02T17:13:26.931Z,95903.00
2022-11-02T17:15:56.882Z,95905.75
2022-11-02T17:18:29.680Z,95896.94
2022-11-02T17:21:26.812Z,95896.47
2022-11-02T17:23:57.349Z,95911.78
2022-11-02T17:26:44.581Z,95903.66
2022-11-02T17:29:32.053Z,95903.22
2022-11-02T17:32:01.454Z,95908.19
2022-11-02T17:34:30.701Z,95907.38
2022-11-02T17:36:58.641Z,95908.34
2022-11-02T17:39:27.776Z,95908.00
2022-11-02T17:42:14.724Z,95912.84
2022-11-02T17:44:45.229Z,95907.09
2022-11-02T17:47:14.902Z,95910.94
2022-11-02T17:49:42.716Z,95911.31
2022-11-02T17:52:13.561Z,95908.72
2022-11-02T17:54:42.829Z,95908.13
2022-11-02T17:57:13.866Z,95912.38
2022-11-02T17:59:41.620Z,95911.41
2022-11-02T18:02:13.964Z,95908.34
2022-11-02T18:07:14.607Z,95913.59
2022-11-02T18:09:43.785Z,95909.16
2022-11-02T18:12:13.565Z,95901.94
2022-11-02T18:14:41.679Z,95904.22
2022-11-02T18:17:09.834Z,95894.34
2022-11-02T18:19:37.631Z,95894.53
2022-11-02T18:22:05.368Z,95895.00
2022-11-02T18:24:33.237Z,95883.97
2022-11-02T18:27:02.325Z,95877.72
2022-11-02T18:29:30.103Z,95876.84
2022-11-02T18:31:57.843Z,95870.47
2022-11-02T18:34:25.745Z,95878.06
2022-11-02T18:36:53.509Z,95874.28
2022-11-02T18:39:21.299Z,95878.78
2022-11-02T18:41:49.153Z,95869.22
2022-11-02T18:44:18.251Z,95859.31
2022-11-02T18:46:46.021Z,95850.69
2022-11-02T18:49:14.507Z,95842.00
2022-11-02T18:51:43.571Z,95839.94
2022-11-02T18:54:11.948Z,95833.97
2022-11-02T18:56:39.787Z,95837.81
2022-11-02T18:59:07.645Z,95829.81
2022-11-02T19:01:37.251Z,95826.13
2022-11-02T19:04:05.345Z,95824.69
2022-11-02T19:06:51.619Z,95825.53
2022-11-02T19:09:22.917Z,95819.28
2022-11-02T19:11:54.359Z,95812.75
2022-11-02T19:14:23.772Z,95804.38
2022-11-02T19:16:53.029Z,95812.06
2022-11-02T19:19:20.806Z,95805.56
2022-11-02T19:21:48.712Z,95819.22
2022-11-02T19:24:16.548Z,95801.97
2022-11-02T19:26:44.306Z,95799.50
2022-11-02T19:29:12.407Z,95795.44
2022-11-02T19:31:40.831Z,95796.88
2022-11-02T19:34:10.603Z,95803.47
2022-11-02T19:36:38.696Z,95797.47
2022-11-02T19:39:09.101Z,95794.41
2022-11-02T19:41:39.635Z,95790.31
2022-11-02T19:44:07.898Z,95787.88
2022-11-02T19:46:36.072Z,95789.28
2022-11-02T19:49:03.910Z,95792.06
2022-11-02T19:51:33.248Z,95785.84
2022-11-02T19:54:03.290Z,95777.06
2022-11-02T19:56:34.992Z,95784.47
2022-11-02T19:59:03.277Z,95776.75
2022-11-02T20:01:33.350Z,95771.38
2022-11-02T20:04:01.531Z,95767.41
2022-11-02T20:06:33.243Z,95759.56
2022-11-02T20:09:04.276Z,95757.72
2022-11-02T20:11:32.868Z,95751.28
2022-11-02T20:14:02.368Z,95751.75
2022-11-02T20:16:30.463Z,95761.69
2022-11-02T20:18:58.999Z,95766.06
2022-11-02T20:21:33.323Z,95768.34
2022-11-02T20:24:03.678Z,95762.66
2022-11-02T20:26:33.769Z,95759.28
2022-11-02T20:29:03.054Z,95772.88
2022-11-02T20:31:32.702Z,95762.97
2022-11-02T20:34:01.437Z,95762.84
2022-11-02T20:36:29.911Z,95760.63
2022-11-02T20:38:58.011Z,95745.28
2022-11-02T20:41:27.627Z,95747.81
2022-11-02T20:43:55.937Z,95751.19
2022-11-02T20:46:42.275Z,95745.28
2022-11-02T20:49:21.720Z,95745.63
2022-11-02T20:51:57.136Z,95748.19
2022-11-02T20:54:26.160Z,95744.66
2022-11-02T20:56:55.265Z,95743.22
2022-11-02T20:59:23.108Z,95747.41
2022-11-02T21:01:50.906Z,95743.56
2022-11-02T21:04:21.304Z,95740.06
2022-11-02T21:06:49.633Z,95741.34
2022-11-02T21:09:17.423Z,95738.31
2022-11-02T21:12:02.738Z,95734.50
2022-11-02T21:14:32.000Z,95735.47
2022-11-02T21:16:59.906Z,95738.16
2022-11-02T21:19:27.700Z,95738.16
2022-11-02T21:21:59.632Z,95724.59
2022-11-02T21:24:28.428Z,95709.78
2022-11-02T21:26:56.454Z,95728.59
2022-11-02T21:29:24.378Z,95729.69
2022-11-02T21:31:53.535Z,95724.28
2022-11-02T21:34:21.410Z,95724.13
2022-11-02T21:36:49.362Z,95726.19
2022-11-02T21:39:17.215Z,95739.44
2022-11-02T21:41:45.143Z,95735.63
2022-11-02T21:44:12.955Z,95728.41
2022-11-02T21:46:40.765Z,95714.22
2022-11-02T21:49:10.231Z,95715.66
2022-11-02T21:51:38.568Z,95712.47
2022-11-02T21:54:06.700Z,95712.97
2022-11-02T21:56:35.943Z,95722.84
2022-11-02T21:59:05.318Z,95721.34
2022-11-02T22:01:46.865Z,95708.47
2022-11-02T22:04:21.416Z,95708.03
2022-11-02T22:06:49.291Z,95704.03
2022-11-02T22:09:17.127Z,95714.22
2022-11-02T22:11:45.263Z,95710.88
2022-11-02T22:14:13.537Z,95712.78
2022-11-02T22:16:43.489Z,95701.44
2022-11-02T22:19:13.501Z,95702.06
2022-11-02T22:21:54.447Z,95693.00
2022-11-02T22:24:22.327Z,95700.81
2022-11-02T22:26:51.394Z,95698.53
2022-11-02T22:29:19.659Z,95702.84
2022-11-02T22:31:48.012Z,95693.66
2022-11-02T22:34:16.701Z,95694.63
2022-11-02T22:36:46.594Z,95686.19
2022-11-02T22:39:14.172Z,95689.22
2022-11-02T22:41:43.216Z,95686.50
2022-11-02T22:44:12.821Z,95689.66
2022-11-02T22:46:42.369Z,95686.00
2022-11-02T22:49:11.909Z,95690.16
2022-11-02T22:51:41.512Z,95686.03
2022-11-02T22:54:13.666Z,95679.00
2022-11-02T22:56:42.191Z,95688.41
2022-11-02T22:59:10.523Z,95682.66
2022-11-02T23:01:39.312Z,95683.91
2022-11-02T23:04:08.102Z,95669.75
2022-11-02T23:06:36.305Z,95673.25
2022-11-02T23:09:04.981Z,95663.69
2022-11-02T23:11:36.619Z,95665.28
2022-11-02T23:14:06.541Z,95657.16
2022-11-02T23:16:36.986Z,95665.44
2022-11-02T23:19:28.624Z,95666.25
2022-11-02T23:22:18.525Z,95658.91
2022-11-02T23:25:05.592Z,95657.63
2022-11-02T23:27:58.433Z,95660.63
2022-11-02T23:30:45.430Z,95658.28
2022-11-02T23:33:13.640Z,95650.00
2022-11-02T23:36:04.930Z,95643.31
2022-11-02T23:38:46.901Z,95648.56
2022-11-02T23:41:15.098Z,95643.00
2022-11-02T23:43:44.273Z,95654.28
2022-11-02T23:46:12.597Z,95649.34
2022-11-02T23:48:42.444Z,95645.22
2022-11-02T23:51:28.084Z,95640.25
2022-11-02T23:54:13.872Z,95633.09
2022-11-02T23:56:44.643Z,95641.53
2022-11-02T23:59:14.630Z,95636.91
